sensor_id;sensor_type;location;lat;lon;timestamp;P1;durP1;ratioP1;P2;durP2;ratioP2
21122;SDS011;10719;48.130;11.630;2024-03-02T00:00:06;18.38;;;7.70;;
21122;SDS011;10719;48.130;11.630;2024-03-02T00:02:41;16.02;;;7.35;;
21122;SDS011;10719;48.130;11.630;2024-03-02T00:05:11;16.00;;;7.13;;
21122;SDS011;10719;48.130;11.630;2024-03-02T00:07:37;15.85;;;7.15;;
21122;SDS011;10719;48.130;11.630;2024-03-02T00:10:07;15.82;;;6.75;;
21122;SDS011;10719;48.130;11.630;2024-03-02T00:12:38;15.18;;;7.53;;
21122;SDS011;10719;48.130;11.630;2024-03-02T00:17:59;15.13;;;6.95;;
21122;SDS011;10719;48.130;11.630;2024-03-02T00:20:25;15.10;;;6.43;;
21122;SDS011;10719;48.130;11.630;2024-03-02T00:22:55;16.35;;;6.70;;
21122;SDS011;10719;48.130;11.630;2024-03-02T00:25:39;13.48;;;6.03;;
21122;SDS011;10719;48.130;11.630;2024-03-02T00:33:23;14.23;;;6.32;;
21122;SDS011;10719;48.130;11.630;2024-03-02T00:35:50;13.82;;;6.32;;
21122;SDS011;10719;48.130;11.630;2024-03-02T00:38:17;13.10;;;6.25;;
21122;SDS011;10719;48.130;11.630;2024-03-02T00:40:43;16.85;;;7.85;;
21122;SDS011;10719;48.130;11.630;2024-03-02T00:43:12;16.30;;;7.05;;
21122;SDS011;10719;48.130;11.630;2024-03-02T00:46:06;13.90;;;6.50;;
21122;SDS011;10719;48.130;11.630;2024-03-02T00:48:31;15.95;;;6.97;;
21122;SDS011;10719;48.130;11.630;2024-03-02T00:51:00;17.05;;;7.20;;
21122;SDS011;10719;48.130;11.630;2024-03-02T00:53:29;15.38;;;6.95;;
21122;SDS011;10719;48.130;11.630;2024-03-02T00:55:56;16.33;;;7.63;;
21122;SDS011;10719;48.130;11.630;2024-03-02T00:58:22;14.75;;;6.75;;
21122;SDS011;10719;48.130;11.630;2024-03-02T01:00:48;15.77;;;7.10;;
21122;SDS011;10719;48.130;11.630;2024-03-02T01:03:14;15.52;;;6.85;;
21122;SDS011;10719;48.130;11.630;2024-03-02T01:05:43;13.77;;;6.72;;
21122;SDS011;10719;48.130;11.630;2024-03-02T01:08:09;15.57;;;6.82;;
21122;SDS011;10719;48.130;11.630;2024-03-02T01:10:35;14.60;;;7.38;;
21122;SDS011;10719;48.130;11.630;2024-03-02T01:13:01;16.85;;;6.43;;
21122;SDS011;10719;48.130;11.630;2024-03-02T01:15:27;15.07;;;6.63;;
21122;SDS011;10719;48.130;11.630;2024-03-02T01:17:52;15.63;;;6.88;;
21122;SDS011;10719;48.130;11.630;2024-03-02T01:20:18;14.27;;;6.32;;
21122;SDS011;10719;48.130;11.630;2024-03-02T01:22:43;12.25;;;5.38;;
21122;SDS011;10719;48.130;11.630;2024-03-02T01:25:09;14.18;;;6.45;;
21122;SDS011;10719;48.130;11.630;2024-03-02T01:27:35;15.50;;;6.45;;
21122;SDS011;10719;48.130;11.630;2024-03-02T01:30:00;12.43;;;5.75;;
21122;SDS011;10719;48.130;11.630;2024-03-02T01:32:26;15.80;;;6.05;;
21122;SDS011;10719;48.130;11.630;2024-03-02T01:34:52;16.52;;;5.82;;
21122;SDS011;10719;48.130;11.630;2024-03-02T01:37:17;15.00;;;6.55;;
21122;SDS011;10719;48.130;11.630;2024-03-02T01:39:43;13.52;;;6.00;;
21122;SDS011;10719;48.130;11.630;2024-03-02T01:42:09;14.05;;;6.03;;
21122;SDS011;10719;48.130;11.630;2024-03-02T01:44:36;12.70;;;6.05;;
21122;SDS011;10719;48.130;11.630;2024-03-02T01:47:01;14.93;;;6.85;;
21122;SDS011;10719;48.130;11.630;2024-03-02T01:49:27;12.77;;;5.88;;
21122;SDS011;10719;48.130;11.630;2024-03-02T01:51:53;14.02;;;6.13;;
21122;SDS011;10719;48.130;11.630;2024-03-02T01:54:18;13.85;;;6.03;;
21122;SDS011;10719;48.130;11.630;2024-03-02T01:56:44;13.57;;;6.03;;
21122;SDS011;10719;48.130;11.630;2024-03-02T01:59:10;14.52;;;6.00;;
21122;SDS011;10719;48.130;11.630;2024-03-02T02:01:36;12.70;;;5.38;;
21122;SDS011;10719;48.130;11.630;2024-03-02T02:04:02;13.90;;;6.45;;
21122;SDS011;10719;48.130;11.630;2024-03-02T02:06:27;14.00;;;6.13;;
21122;SDS011;10719;48.130;11.630;2024-03-02T02:08:53;15.55;;;6.70;;
21122;SDS011;10719;48.130;11.630;2024-03-02T02:11:19;12.55;;;5.47;;
21122;SDS011;10719;48.130;11.630;2024-03-02T02:13:44;13.88;;;6.10;;
21122;SDS011;10719;48.130;11.630;2024-03-02T02:16:10;12.73;;;5.95;;
21122;SDS011;10719;48.130;11.630;2024-03-02T02:18:36;13.90;;;6.65;;
21122;SDS011;10719;48.130;11.630;2024-03-02T02:21:02;14.70;;;6.13;;
21122;SDS011;10719;48.130;11.630;2024-03-02T02:23:28;13.07;;;5.82;;
21122;SDS011;10719;48.130;11.630;2024-03-02T02:25:54;12.57;;;5.65;;
21122;SDS011;10719;48.130;11.630;2024-03-02T02:28:19;13.20;;;6.03;;
21122;SDS011;10719;48.130;11.630;2024-03-02T02:30:45;14.45;;;6.15;;
21122;SDS011;10719;48.130;11.630;2024-03-02T02:33:11;12.85;;;5.63;;
21122;SDS011;10719;48.130;11.630;2024-03-02T02:35:36;14.35;;;6.03;;
21122;SDS011;10719;48.130;11.630;2024-03-02T02:38:02;12.27;;;5.72;;
21122;SDS011;10719;48.130;11.630;2024-03-02T02:40:29;12.68;;;5.57;;
21122;SDS011;10719;48.130;11.630;2024-03-02T02:42:55;11.85;;;5.32;;
21122;SDS011;10719;48.130;11.630;2024-03-02T02:45:21;11.85;;;5.70;;
21122;SDS011;10719;48.130;11.630;2024-03-02T02:47:47;12.00;;;5.70;;
21122;SDS011;10719;48.130;11.630;2024-03-02T02:50:13;13.90;;;6.13;;
21122;SDS011;10719;48.130;11.630;2024-03-02T02:52:39;14.23;;;6.45;;
21122;SDS011;10719;48.130;11.630;2024-03-02T02:55:07;13.38;;;6.47;;
21122;SDS011;10719;48.130;11.630;2024-03-02T02:57:35;14.15;;;6.35;;
21122;SDS011;10719;48.130;11.630;2024-03-02T03:00:04;13.93;;;6.25;;
21122;SDS011;10719;48.130;11.630;2024-03-02T03:02:34;13.55;;;6.28;;
21122;SDS011;10719;48.130;11.630;2024-03-02T03:05:01;14.68;;;6.97;;
21122;SDS011;10719;48.130;11.630;2024-03-02T03:07:26;16.20;;;6.43;;
21122;SDS011;10719;48.130;11.630;2024-03-02T03:09:52;13.45;;;6.28;;
21122;SDS011;10719;48.130;11.630;2024-03-02T03:12:18;14.55;;;6.47;;
21122;SDS011;10719;48.130;11.630;2024-03-02T03:14:44;14.75;;;6.45;;
21122;SDS011;10719;48.130;11.630;2024-03-02T03:17:09;14.77;;;6.65;;
21122;SDS011;10719;48.130;11.630;2024-03-02T03:19:35;14.30;;;6.93;;
21122;SDS011;10719;48.130;11.630;2024-03-02T03:22:01;15.77;;;7.13;;
21122;SDS011;10719;48.130;11.630;2024-03-02T03:24:26;16.90;;;7.63;;
21122;SDS011;10719;48.130;11.630;2024-03-02T03:26:52;14.68;;;6.80;;
21122;SDS011;10719;48.130;11.630;2024-03-02T03:29:18;15.05;;;7.03;;
21122;SDS011;10719;48.130;11.630;2024-03-02T03:31:43;13.90;;;6.60;;
21122;SDS011;10719;48.130;11.630;2024-03-02T03:34:09;14.45;;;6.95;;
21122;SDS011;10719;48.130;11.630;2024-03-02T03:36:34;13.98;;;6.72;;
21122;SDS011;10719;48.130;11.630;2024-03-02T03:39:00;16.25;;;7.18;;
21122;SDS011;10719;48.130;11.630;2024-03-02T03:41:27;15.27;;;6.95;;
21122;SDS011;10719;48.130;11.630;2024-03-02T03:43:52;13.27;;;5.95;;
21122;SDS011;10719;48.130;11.630;2024-03-02T03:46:18;17.20;;;7.47;;
21122;SDS011;10719;48.130;11.630;2024-03-02T03:48:43;16.92;;;7.80;;
21122;SDS011;10719;48.130;11.630;2024-03-02T03:51:09;15.60;;;6.80;;
21122;SDS011;10719;48.130;11.630;2024-03-02T03:53:35;13.48;;;6.32;;
21122;SDS011;10719;48.130;11.630;2024-03-02T03:56:00;14.02;;;6.72;;
21122;SDS011;10719;48.130;11.630;2024-03-02T03:58:26;17.33;;;7.45;;
21122;SDS011;10719;48.130;11.630;2024-03-02T04:00:52;14.90;;;6.97;;
21122;SDS011;10719;48.130;11.630;2024-03-02T04:03:17;15.40;;;7.15;;
21122;SDS011;10719;48.130;11.630;2024-03-02T04:05:43;17.27;;;7.75;;
21122;SDS011;10719;48.130;11.630;2024-03-02T04:08:09;15.70;;;7.65;;
21122;SDS011;10719;48.130;11.630;2024-03-02T04:10:36;17.20;;;7.15;;
21122;SDS011;10719;48.130;11.630;2024-03-02T04:13:02;17.48;;;8.10;;
21122;SDS011;10719;48.130;11.630;2024-03-02T04:15:28;15.63;;;7.60;;
21122;SDS011;10719;48.130;11.630;2024-03-02T04:17:53;16.80;;;8.30;;
21122;SDS011;10719;48.130;11.630;2024-03-02T04:20:20;15.63;;;7.72;;
21122;SDS011;10719;48.130;11.630;2024-03-02T04:22:45;18.37;;;8.70;;
21122;SDS011;10719;48.130;11.630;2024-03-02T04:25:11;16.23;;;8.50;;
21122;SDS011;10719;48.130;11.630;2024-03-02T04:27:36;16.10;;;8.23;;
21122;SDS011;10719;48.130;11.630;2024-03-02T04:30:03;16.35;;;7.95;;
21122;SDS011;10719;48.130;11.630;2024-03-02T04:32:30;18.58;;;8.27;;
21122;SDS011;10719;48.130;11.630;2024-03-02T04:34:56;17.02;;;7.93;;
21122;SDS011;10719;48.130;11.630;2024-03-02T04:37:22;17.60;;;8.40;;
21122;SDS011;10719;48.130;11.630;2024-03-02T04:39:47;18.73;;;7.95;;
21122;SDS011;10719;48.130;11.630;2024-03-02T04:42:13;18.10;;;7.82;;
21122;SDS011;10719;48.130;11.630;2024-03-02T04:44:39;16.65;;;8.55;;
21122;SDS011;10719;48.130;11.630;2024-03-02T04:47:04;16.48;;;8.02;;
21122;SDS011;10719;48.130;11.630;2024-03-02T04:49:30;15.57;;;8.23;;
21122;SDS011;10719;48.130;11.630;2024-03-02T04:51:56;18.42;;;8.23;;
21122;SDS011;10719;48.130;11.630;2024-03-02T04:54:22;17.20;;;8.30;;
21122;SDS011;10719;48.130;11.630;2024-03-02T04:56:47;17.60;;;8.38;;
21122;SDS011;10719;48.130;11.630;2024-03-02T04:59:16;18.40;;;9.20;;
21122;SDS011;10719;48.130;11.630;2024-03-02T05:01:43;18.85;;;8.60;;
21122;SDS011;10719;48.130;11.630;2024-03-02T05:04:09;17.77;;;8.82;;
21122;SDS011;10719;48.130;11.630;2024-03-02T05:06:36;16.88;;;8.90;;
21122;SDS011;10719;48.130;11.630;2024-03-02T05:09:04;16.75;;;8.05;;
21122;SDS011;10719;48.130;11.630;2024-03-02T05:11:29;15.32;;;7.95;;
21122;SDS011;10719;48.130;11.630;2024-03-02T05:14:07;19.50;;;8.77;;
21122;SDS011;10719;48.130;11.630;2024-03-02T05:16:33;18.45;;;8.48;;
21122;SDS011;10719;48.130;11.630;2024-03-02T05:18:59;19.27;;;8.80;;
21122;SDS011;10719;48.130;11.630;2024-03-02T05:21:25;18.95;;;9.52;;
21122;SDS011;10719;48.130;11.630;2024-03-02T05:23:50;19.77;;;10.05;;
21122;SDS011;10719;48.130;11.630;2024-03-02T05:26:16;18.42;;;8.88;;
21122;SDS011;10719;48.130;11.630;2024-03-02T05:28:42;16.63;;;8.77;;
21122;SDS011;10719;48.130;11.630;2024-03-02T05:31:10;16.75;;;8.52;;
21122;SDS011;10719;48.130;11.630;2024-03-02T05:33:39;17.52;;;8.63;;
21122;SDS011;10719;48.130;11.630;2024-03-02T05:36:05;17.20;;;9.13;;
21122;SDS011;10719;48.130;11.630;2024-03-02T05:38:31;18.83;;;9.32;;
21122;SDS011;10719;48.130;11.630;2024-03-02T05:40:57;18.38;;;7.68;;
21122;SDS011;10719;48.130;11.630;2024-03-02T05:43:23;18.02;;;9.07;;
21122;SDS011;10719;48.130;11.630;2024-03-02T05:45:48;17.33;;;9.00;;
21122;SDS011;10719;48.130;11.630;2024-03-02T05:48:14;17.40;;;8.13;;
21122;SDS011;10719;48.130;11.630;2024-03-02T05:50:40;23.35;;;10.25;;
21122;SDS011;10719;48.130;11.630;2024-03-02T05:53:05;19.27;;;8.25;;
21122;SDS011;10719;48.130;11.630;2024-03-02T05:55:31;18.45;;;8.98;;
21122;SDS011;10719;48.130;11.630;2024-03-02T05:57:57;16.95;;;8.65;;
21122;SDS011;10719;48.130;11.630;2024-03-02T06:00:31;18.48;;;9.13;;
21122;SDS011;10719;48.130;11.630;2024-03-02T06:02:57;21.50;;;9.23;;
21122;SDS011;10719;48.130;11.630;2024-03-02T06:05:23;16.17;;;8.32;;
21122;SDS011;10719;48.130;11.630;2024-03-02T06:07:49;18.33;;;8.75;;
21122;SDS011;10719;48.130;11.630;2024-03-02T06:10:15;18.98;;;9.88;;
21122;SDS011;10719;48.130;11.630;2024-03-02T06:12:42;19.17;;;9.75;;
21122;SDS011;10719;48.130;11.630;2024-03-02T06:15:08;18.15;;;8.45;;
21122;SDS011;10719;48.130;11.630;2024-03-02T06:17:35;16.90;;;9.00;;
21122;SDS011;10719;48.130;11.630;2024-03-02T06:20:01;15.75;;;8.40;;
21122;SDS011;10719;48.130;11.630;2024-03-02T06:22:26;20.02;;;9.88;;
21122;SDS011;10719;48.130;11.630;2024-03-02T06:24:52;19.95;;;9.93;;
21122;SDS011;10719;48.130;11.630;2024-03-02T06:27:18;17.38;;;9.48;;
21122;SDS011;10719;48.130;11.630;2024-03-02T06:29:43;18.17;;;8.68;;
21122;SDS011;10719;48.130;11.630;2024-03-02T06:32:09;17.23;;;8.57;;
21122;SDS011;10719;48.130;11.630;2024-03-02T06:34:34;19.35;;;9.73;;
21122;SDS011;10719;48.130;11.630;2024-03-02T06:37:00;19.65;;;9.50;;
21122;SDS011;10719;48.130;11.630;2024-03-02T06:39:26;20.95;;;10.75;;
21122;SDS011;10719;48.130;11.630;2024-03-02T06:41:52;19.60;;;9.75;;
21122;SDS011;10719;48.130;11.630;2024-03-02T06:44:17;19.00;;;10.02;;
21122;SDS011;10719;48.130;11.630;2024-03-02T06:46:43;19.80;;;10.45;;
21122;SDS011;10719;48.130;11.630;2024-03-02T06:49:08;21.67;;;10.13;;
21122;SDS011;10719;48.130;11.630;2024-03-02T06:51:35;21.23;;;10.70;;
21122;SDS011;10719;48.130;11.630;2024-03-02T06:54:01;20.60;;;9.70;;
21122;SDS011;10719;48.130;11.630;2024-03-02T06:56:27;21.10;;;10.18;;
21122;SDS011;10719;48.130;11.630;2024-03-02T06:58:52;19.90;;;10.25;;
21122;SDS011;10719;48.130;11.630;2024-03-02T07:01:18;22.40;;;10.77;;
21122;SDS011;10719;48.130;11.630;2024-03-02T07:03:45;20.85;;;10.52;;
21122;SDS011;10719;48.130;11.630;2024-03-02T07:06:11;22.50;;;11.60;;
21122;SDS011;10719;48.130;11.630;2024-03-02T07:08:36;20.55;;;11.23;;
21122;SDS011;10719;48.130;11.630;2024-03-02T07:11:02;21.98;;;11.50;;
21122;SDS011;10719;48.130;11.630;2024-03-02T07:13:28;26.40;;;12.30;;
21122;SDS011;10719;48.130;11.630;2024-03-02T07:15:53;20.85;;;11.50;;
21122;SDS011;10719;48.130;11.630;2024-03-02T07:18:28;22.00;;;13.07;;
21122;SDS011;10719;48.130;11.630;2024-03-02T07:20:56;22.15;;;11.82;;
21122;SDS011;10719;48.130;11.630;2024-03-02T07:23:26;21.42;;;11.75;;
21122;SDS011;10719;48.130;11.630;2024-03-02T07:25:52;23.13;;;10.98;;
21122;SDS011;10719;48.130;11.630;2024-03-02T07:28:24;23.48;;;12.35;;
21122;SDS011;10719;48.130;11.630;2024-03-02T07:31:02;22.83;;;11.68;;
21122;SDS011;10719;48.130;11.630;2024-03-02T07:33:29;24.35;;;13.00;;
21122;SDS011;10719;48.130;11.630;2024-03-02T07:35:56;22.10;;;11.10;;
21122;SDS011;10719;48.130;11.630;2024-03-02T07:38:22;23.40;;;11.52;;
21122;SDS011;10719;48.130;11.630;2024-03-02T07:40:48;21.58;;;11.65;;
21122;SDS011;10719;48.130;11.630;2024-03-02T07:43:18;22.58;;;11.10;;
21122;SDS011;10719;48.130;11.630;2024-03-02T07:45:44;23.23;;;11.40;;
21122;SDS011;10719;48.130;11.630;2024-03-02T07:48:10;22.17;;;10.98;;
21122;SDS011;10719;48.130;11.630;2024-03-02T07:50:36;21.45;;;10.80;;
21122;SDS011;10719;48.130;11.630;2024-03-02T07:53:02;22.42;;;10.65;;
21122;SDS011;10719;48.130;11.630;2024-03-02T07:55:29;24.33;;;11.05;;
21122;SDS011;10719;48.130;11.630;2024-03-02T07:57:55;24.02;;;10.73;;
21122;SDS011;10719;48.130;11.630;2024-03-02T08:00:21;21.92;;;11.32;;
21122;SDS011;10719;48.130;11.630;2024-03-02T08:02:47;23.60;;;11.73;;
21122;SDS011;10719;48.130;11.630;2024-03-02T08:05:15;21.88;;;11.50;;
21122;SDS011;10719;48.130;11.630;2024-03-02T08:07:41;21.52;;;11.00;;
21122;SDS011;10719;48.130;11.630;2024-03-02T08:10:09;23.13;;;11.40;;
21122;SDS011;10719;48.130;11.630;2024-03-02T08:12:35;22.55;;;11.02;;
21122;SDS011;10719;48.130;11.630;2024-03-02T08:15:00;21.10;;;10.80;;
21122;SDS011;10719;48.130;11.630;2024-03-02T08:17:26;23.58;;;11.27;;
21122;SDS011;10719;48.130;11.630;2024-03-02T08:19:51;20.02;;;10.77;;
21122;SDS011;10719;48.130;11.630;2024-03-02T08:22:18;22.05;;;10.57;;
21122;SDS011;10719;48.130;11.630;2024-03-02T08:24:44;22.42;;;11.75;;
21122;SDS011;10719;48.130;11.630;2024-03-02T08:27:10;19.52;;;10.18;;
21122;SDS011;10719;48.130;11.630;2024-03-02T08:29:35;21.42;;;10.60;;
21122;SDS011;10719;48.130;11.630;2024-03-02T08:32:01;23.05;;;10.55;;
21122;SDS011;10719;48.130;11.630;2024-03-02T08:34:27;22.58;;;11.43;;
21122;SDS011;10719;48.130;11.630;2024-03-02T08:36:53;19.60;;;10.23;;
21122;SDS011;10719;48.130;11.630;2024-03-02T08:39:18;21.27;;;10.80;;
21122;SDS011;10719;48.130;11.630;2024-03-02T08:41:45;21.42;;;10.85;;
21122;SDS011;10719;48.130;11.630;2024-03-02T08:44:11;19.45;;;10.00;;
21122;SDS011;10719;48.130;11.630;2024-03-02T08:46:38;20.58;;;10.07;;
21122;SDS011;10719;48.130;11.630;2024-03-02T08:49:04;21.38;;;9.88;;
21122;SDS011;10719;48.130;11.630;2024-03-02T08:51:30;22.10;;;10.45;;
21122;SDS011;10719;48.130;11.630;2024-03-02T08:53:56;21.95;;;10.88;;
21122;SDS011;10719;48.130;11.630;2024-03-02T08:56:23;20.20;;;9.98;;
21122;SDS011;10719;48.130;11.630;2024-03-02T08:58:49;19.50;;;9.85;;
21122;SDS011;10719;48.130;11.630;2024-03-02T09:01:15;18.00;;;9.85;;
21122;SDS011;10719;48.130;11.630;2024-03-02T09:03:41;17.92;;;9.23;;
21122;SDS011;10719;48.130;11.630;2024-03-02T09:06:10;19.02;;;9.95;;
21122;SDS011;10719;48.130;11.630;2024-03-02T09:08:36;24.35;;;10.18;;
21122;SDS011;10719;48.130;11.630;2024-03-02T09:11:03;19.50;;;10.48;;
21122;SDS011;10719;48.130;11.630;2024-03-02T09:13:29;18.15;;;9.27;;
21122;SDS011;10719;48.130;11.630;2024-03-02T09:15:55;19.00;;;8.50;;
21122;SDS011;10719;48.130;11.630;2024-03-02T09:18:21;15.60;;;7.07;;
21122;SDS011;10719;48.130;11.630;2024-03-02T09:20:47;14.48;;;7.07;;
21122;SDS011;10719;48.130;11.630;2024-03-02T09:23:12;15.80;;;6.50;;
21122;SDS011;10719;48.130;11.630;2024-03-02T09:25:38;15.00;;;6.22;;
21122;SDS011;10719;48.130;11.630;2024-03-02T09:28:03;15.98;;;6.38;;
21122;SDS011;10719;48.130;11.630;2024-03-02T09:30:29;14.30;;;6.82;;
21122;SDS011;10719;48.130;11.630;2024-03-02T09:32:55;16.52;;;7.25;;
21122;SDS011;10719;48.130;11.630;2024-03-02T09:35:20;13.88;;;6.82;;
21122;SDS011;10719;48.130;11.630;2024-03-02T09:37:46;18.20;;;6.80;;
21122;SDS011;10719;48.130;11.630;2024-03-02T09:40:12;16.70;;;7.18;;
21122;SDS011;10719;48.130;11.630;2024-03-02T09:42:39;17.20;;;7.95;;
21122;SDS011;10719;48.130;11.630;2024-03-02T09:45:05;15.25;;;7.63;;
21122;SDS011;10719;48.130;11.630;2024-03-02T09:47:32;16.50;;;7.80;;
21122;SDS011;10719;48.130;11.630;2024-03-02T09:49:58;15.95;;;7.38;;
21122;SDS011;10719;48.130;11.630;2024-03-02T09:52:24;16.25;;;7.55;;
21122;SDS011;10719;48.130;11.630;2024-03-02T09:54:50;16.20;;;7.68;;
21122;SDS011;10719;48.130;11.630;2024-03-02T09:57:16;16.92;;;8.15;;
21122;SDS011;10719;48.130;11.630;2024-03-02T09:59:41;19.25;;;7.38;;
21122;SDS011;10719;48.130;11.630;2024-03-02T10:02:07;14.68;;;6.03;;
21122;SDS011;10719;48.130;11.630;2024-03-02T10:04:33;11.85;;;5.32;;
21122;SDS011;10719;48.130;11.630;2024-03-02T10:09:39;16.95;;;6.03;;
21122;SDS011;10719;48.130;11.630;2024-03-02T10:12:09;13.15;;;5.97;;
21122;SDS011;10719;48.130;11.630;2024-03-02T10:14:39;12.55;;;5.80;;
21122;SDS011;10719;48.130;11.630;2024-03-02T10:17:10;11.05;;;4.30;;
21122;SDS011;10719;48.130;11.630;2024-03-02T10:19:37;13.20;;;5.05;;
21122;SDS011;10719;48.130;11.630;2024-03-02T10:22:04;12.13;;;4.90;;
21122;SDS011;10719;48.130;11.630;2024-03-02T10:24:38;18.45;;;6.20;;
21122;SDS011;10719;48.130;11.630;2024-03-02T10:27:23;14.95;;;6.07;;
21122;SDS011;10719;48.130;11.630;2024-03-02T10:29:51;14.48;;;5.63;;
21122;SDS011;10719;48.130;11.630;2024-03-02T10:32:17;13.48;;;5.63;;
21122;SDS011;10719;48.130;11.630;2024-03-02T10:34:43;13.25;;;5.65;;
21122;SDS011;10719;48.130;11.630;2024-03-02T10:37:10;14.90;;;6.65;;
21122;SDS011;10719;48.130;11.630;2024-03-02T10:39:36;16.50;;;7.60;;
21122;SDS011;10719;48.130;11.630;2024-03-02T10:42:04;15.68;;;7.28;;
21122;SDS011;10719;48.130;11.630;2024-03-02T10:44:31;17.33;;;8.00;;
21122;SDS011;10719;48.130;11.630;2024-03-02T10:47:01;18.35;;;8.30;;
21122;SDS011;10719;48.130;11.630;2024-03-02T10:49:29;18.42;;;8.50;;
21122;SDS011;10719;48.130;11.630;2024-03-02T10:51:57;17.77;;;8.68;;
21122;SDS011;10719;48.130;11.630;2024-03-02T10:54:23;20.90;;;9.65;;
21122;SDS011;10719;48.130;11.630;2024-03-02T10:56:52;17.70;;;8.63;;
21122;SDS011;10719;48.130;11.630;2024-03-02T10:59:26;15.48;;;7.45;;
21122;SDS011;10719;48.130;11.630;2024-03-02T11:02:04;17.08;;;7.63;;
21122;SDS011;10719;48.130;11.630;2024-03-02T11:04:32;19.60;;;7.63;;
21122;SDS011;10719;48.130;11.630;2024-03-02T11:07:00;18.92;;;7.18;;
21122;SDS011;10719;48.130;11.630;2024-03-02T11:09:29;17.83;;;7.60;;
21122;SDS011;10719;48.130;11.630;2024-03-02T11:12:06;15.15;;;7.10;;
21122;SDS011;10719;48.130;11.630;2024-03-02T11:14:37;17.30;;;8.30;;
21122;SDS011;10719;48.130;11.630;2024-03-02T11:17:08;18.67;;;7.88;;
21122;SDS011;10719;48.130;11.630;2024-03-02T11:19:35;16.70;;;7.53;;
21122;SDS011;10719;48.130;11.630;2024-03-02T11:22:03;18.77;;;7.68;;
21122;SDS011;10719;48.130;11.630;2024-03-02T11:24:30;16.40;;;6.72;;
21122;SDS011;10719;48.130;11.630;2024-03-02T11:26:59;13.60;;;5.93;;
21122;SDS011;10719;48.130;11.630;2024-03-02T11:32:01;13.30;;;5.78;;
21122;SDS011;10719;48.130;11.630;2024-03-02T11:34:32;14.25;;;5.82;;
21122;SDS011;10719;48.130;11.630;2024-03-02T11:37:01;13.50;;;6.40;;
21122;SDS011;10719;48.130;11.630;2024-03-02T11:39:28;16.40;;;6.18;;
21122;SDS011;10719;48.130;11.630;2024-03-02T11:41:54;16.55;;;6.38;;
21122;SDS011;10719;48.130;11.630;2024-03-02T11:44:21;14.73;;;6.30;;
21122;SDS011;10719;48.130;11.630;2024-03-02T11:47:02;16.90;;;6.68;;
21122;SDS011;10719;48.130;11.630;2024-03-02T11:49:38;15.38;;;5.93;;
21122;SDS011;10719;48.130;11.630;2024-03-02T11:52:11;13.30;;;5.18;;
21122;SDS011;10719;48.130;11.630;2024-03-02T11:54:38;18.65;;;6.82;;
21122;SDS011;10719;48.130;11.630;2024-03-02T11:57:05;14.90;;;6.55;;
21122;SDS011;10719;48.130;11.630;2024-03-02T11:59:34;13.60;;;5.78;;
21122;SDS011;10719;48.130;11.630;2024-03-02T12:01:59;16.50;;;6.88;;
21122;SDS011;10719;48.130;11.630;2024-03-02T12:04:26;16.73;;;6.85;;
21122;SDS011;10719;48.130;11.630;2024-03-02T12:06:55;16.73;;;6.97;;
21122;SDS011;10719;48.130;11.630;2024-03-02T12:09:24;16.02;;;7.30;;
21122;SDS011;10719;48.130;11.630;2024-03-02T12:12:07;16.50;;;6.68;;
21122;SDS011;10719;48.130;11.630;2024-03-02T12:14:35;15.13;;;6.68;;
21122;SDS011;10719;48.130;11.630;2024-03-02T12:17:02;17.38;;;7.15;;
21122;SDS011;10719;48.130;11.630;2024-03-02T12:19:28;19.08;;;7.95;;
21122;SDS011;10719;48.130;11.630;2024-03-02T12:21:58;19.15;;;7.25;;
21122;SDS011;10719;48.130;11.630;2024-03-02T12:24:26;20.10;;;7.18;;
21122;SDS011;10719;48.130;11.630;2024-03-02T12:26:53;16.02;;;7.20;;
21122;SDS011;10719;48.130;11.630;2024-03-02T12:29:19;14.77;;;6.80;;
21122;SDS011;10719;48.130;11.630;2024-03-02T12:31:47;15.68;;;6.97;;
21122;SDS011;10719;48.130;11.630;2024-03-02T12:34:14;16.73;;;7.63;;
21122;SDS011;10719;48.130;11.630;2024-03-02T12:36:40;15.88;;;7.30;;
21122;SDS011;10719;48.130;11.630;2024-03-02T12:39:07;17.23;;;6.90;;
21122;SDS011;10719;48.130;11.630;2024-03-02T12:41:36;16.08;;;6.15;;
21122;SDS011;10719;48.130;11.630;2024-03-02T12:44:05;15.85;;;6.82;;
21122;SDS011;10719;48.130;11.630;2024-03-02T12:46:31;13.88;;;6.07;;
21122;SDS011;10719;48.130;11.630;2024-03-02T12:48:57;17.35;;;5.82;;
21122;SDS011;10719;48.130;11.630;2024-03-02T12:51:26;13.57;;;5.22;;
21122;SDS011;10719;48.130;11.630;2024-03-02T12:53:53;16.35;;;5.60;;
21122;SDS011;10719;48.130;11.630;2024-03-02T12:56:20;13.20;;;5.20;;
21122;SDS011;10719;48.130;11.630;2024-03-02T12:58:45;14.05;;;5.97;;
21122;SDS011;10719;48.130;11.630;2024-03-02T13:01:11;15.32;;;6.25;;
21122;SDS011;10719;48.130;11.630;2024-03-02T13:03:39;16.65;;;6.03;;
21122;SDS011;10719;48.130;11.630;2024-03-02T13:06:06;13.50;;;4.97;;
21122;SDS011;10719;48.130;11.630;2024-03-02T13:08:32;13.00;;;5.63;;
21122;SDS011;10719;48.130;11.630;2024-03-02T13:10:58;14.98;;;7.65;;
21122;SDS011;10719;48.130;11.630;2024-03-02T13:13:24;15.02;;;7.47;;
21122;SDS011;10719;48.130;11.630;2024-03-02T13:15:49;17.42;;;7.20;;
21122;SDS011;10719;48.130;11.630;2024-03-02T13:18:19;16.65;;;7.57;;
21122;SDS011;10719;48.130;11.630;2024-03-02T13:20:44;14.13;;;6.70;;
21122;SDS011;10719;48.130;11.630;2024-03-02T13:23:10;17.10;;;5.93;;
21122;SDS011;10719;48.130;11.630;2024-03-02T13:25:36;12.45;;;5.22;;
21122;SDS011;10719;48.130;11.630;2024-03-02T13:28:01;12.68;;;5.18;;
21122;SDS011;10719;48.130;11.630;2024-03-02T13:30:28;16.35;;;7.35;;
21122;SDS011;10719;48.130;11.630;2024-03-02T13:32:54;18.10;;;8.05;;
21122;SDS011;10719;48.130;11.630;2024-03-02T13:35:19;16.65;;;8.18;;
21122;SDS011;10719;48.130;11.630;2024-03-02T13:37:45;17.52;;;8.20;;
21122;SDS011;10719;48.130;11.630;2024-03-02T13:40:11;17.35;;;7.72;;
21122;SDS011;10719;48.130;11.630;2024-03-02T13:42:41;19.05;;;8.40;;
21122;SDS011;10719;48.130;11.630;2024-03-02T13:45:07;18.30;;;8.05;;
21122;SDS011;10719;48.130;11.630;2024-03-02T13:47:33;16.98;;;7.82;;
21122;SDS011;10719;48.130;11.630;2024-03-02T13:49:59;18.95;;;8.43;;
21122;SDS011;10719;48.130;11.630;2024-03-02T13:52:24;16.50;;;7.45;;
21122;SDS011;10719;48.130;11.630;2024-03-02T13:54:51;14.35;;;6.30;;
21122;SDS011;10719;48.130;11.630;2024-03-02T13:57:19;13.52;;;5.53;;
21122;SDS011;10719;48.130;11.630;2024-03-02T13:59:45;14.02;;;5.75;;
21122;SDS011;10719;48.130;11.630;2024-03-02T14:02:12;16.42;;;7.38;;
21122;SDS011;10719;48.130;11.630;2024-03-02T14:04:38;17.08;;;7.32;;
21122;SDS011;10719;48.130;11.630;2024-03-02T14:07:04;14.68;;;6.20;;
21122;SDS011;10719;48.130;11.630;2024-03-02T14:09:33;18.15;;;7.00;;
21122;SDS011;10719;48.130;11.630;2024-03-02T14:11:59;14.15;;;5.85;;
21122;SDS011;10719;48.130;11.630;2024-03-02T14:14:27;18.02;;;7.85;;
21122;SDS011;10719;48.130;11.630;2024-03-02T14:16:56;19.98;;;8.75;;
21122;SDS011;10719;48.130;11.630;2024-03-02T14:19:25;16.67;;;8.35;;
21122;SDS011;10719;48.130;11.630;2024-03-02T14:21:51;16.67;;;8.65;;
21122;SDS011;10719;48.130;11.630;2024-03-02T14:24:17;22.80;;;7.88;;
21122;SDS011;10719;48.130;11.630;2024-03-02T14:26:42;16.67;;;7.68;;
21122;SDS011;10719;48.130;11.630;2024-03-02T14:29:08;14.75;;;7.20;;